Time;durP1;ratioP1;P1;durP2;ratioP2;P2;SDS_P1;SDS_P2;PMS_P1;PMS_P2;Temp;Humidity;BMP_temperature;BMP_pressure;BME280_temperature;BME280_humidity;BME280_pressure;Samples;Min_cycle;Max_cycle;Signal;HPM_P1;HPM_P2
2021/05/29 00:00:00;;;;;;;9.40;4.33;;;;;;;;;;5078897;28;20804;-57
2021/05/29 00:02:27;;;;;;;6.47;4.03;;;;;;;;;;5038063;28;20495;-58
2021/05/29 00:04:54;;;;;;;5.60;4.00;;;;;;;;;;5038450;28;20463;-54
2021/05/29 00:07:22;;;;;;;6.80;4.20;;;;;;;;;;5038227;28;20465;-54
2021/05/29 00:09:49;;;;;;;7.87;4.43;;;;;;;;;;5038604;28;20549;-52
2021/05/29 00:12:16;;;;;;;6.97;4.53;;;;;;;;;;5038687;28;20470;-52
2021/05/29 00:14:46;;;;;;;6.53;4.10;;;;;;;;;;5038297;28;20451;-56
2021/05/29 00:17:13;;;;;;;6.80;4.20;;;;;;;;;;5037701;28;20511;-55
2021/05/29 00:19:40;;;;;;;7.07;5.03;;;;;;;;;;5037873;28;20451;-53
2021/05/29 00:22:07;;;;;;;12.43;5.60;;;;;;;;;;5038316;28;20483;-57
2021/05/29 00:24:35;;;;;;;8.67;5.07;;;;;;;;;;5035730;28;20491;-54
2021/05/29 00:27:02;;;;;;;6.53;4.33;;;;;;;;;;5037437;28;20443;-53
2021/05/29 00:29:30;;;;;;;8.10;4.93;;;;;;;;;;5037253;28;20451;-59
2021/05/29 00:31:56;;;;;;;7.70;4.63;;;;;;;;;;5037691;28;20908;-51
2021/05/29 00:34:24;;;;;;;7.90;4.70;;;;;;;;;;5038031;28;20454;-57
2021/05/29 00:37:02;;;;;;;8.97;5.73;;;;;;;;;;5038298;28;20502;-47
2021/05/29 00:39:29;;;;;;;7.30;4.83;;;;;;;;;;5037938;28;20446;-57
2021/05/29 00:41:57;;;;;;;9.07;5.73;;;;;;;;;;5036808;28;20518;-58
2021/05/29 00:44:25;;;;;;;9.80;4.67;;;;;;;;;;5037547;28;20474;-52
2021/05/29 00:46:51;;;;;;;5.20;3.70;;;;;;;;;;5037506;28;20423;-55
2021/05/29 00:49:18;;;;;;;7.90;4.80;;;;;;;;;;5037260;28;20445;-57
2021/05/29 00:51:46;;;;;;;9.40;4.70;;;;;;;;;;5037380;28;20541;-55
2021/05/29 00:54:12;;;;;;;8.00;4.13;;;;;;;;;;5037398;28;20446;-55
2021/05/29 00:56:41;;;;;;;7.30;4.70;;;;;;;;;;5037640;28;20574;-54
2021/05/29 00:59:09;;;;;;;6.90;4.73;;;;;;;;;;5037476;28;20443;-56
2021/05/29 01:01:36;;;;;;;6.90;4.70;;;;;;;;;;5037335;28;20471;-57
2021/05/29 01:04:03;;;;;;;6.97;4.53;;;;;;;;;;5037517;28;20459;-51
2021/05/29 01:06:30;;;;;;;7.77;4.97;;;;;;;;;;5037674;28;20478;-53
2021/05/29 01:08:56;;;;;;;7.67;4.20;;;;;;;;;;5037414;28;20455;-53
2021/05/29 01:11:23;;;;;;;8.23;4.10;;;;;;;;;;5037356;28;20466;-53
2021/05/29 01:13:57;;;;;;;9.93;5.67;;;;;;;;;;5037309;28;20464;-56
2021/05/29 01:16:42;;;;;;;6.30;4.50;;;;;;;;;;5037305;28;20492;-54
2021/05/29 01:19:21;;;;;;;6.33;4.50;;;;;;;;;;5037236;28;20863;-55
2021/05/29 01:21:48;;;;;;;6.83;4.93;;;;;;;;;;5040480;28;20580;-53
2021/05/29 01:24:19;;;;;;;8.17;4.57;;;;;;;;;;5055555;28;20481;-51
2021/05/29 01:26:46;;;;;;;10.13;5.30;;;;;;;;;;5036960;28;20489;-53
2021/05/29 01:29:14;;;;;;;11.00;5.97;;;;;;;;;;5036036;28;20439;-52
2021/05/29 01:31:48;;;;;;;10.80;6.83;;;;;;;;;;5036517;28;20499;-53
2021/05/29 01:34:16;;;;;;;7.77;5.43;;;;;;;;;;5036342;28;20458;-52
2021/05/29 01:36:43;;;;;;;9.80;6.03;;;;;;;;;;5036610;28;20478;-51
2021/05/29 01:39:12;;;;;;;9.17;5.20;;;;;;;;;;5036209;28;20470;-55
2021/05/29 01:41:40;;;;;;;6.67;4.33;;;;;;;;;;5036369;28;20550;-53
2021/05/29 01:44:08;;;;;;;6.97;4.70;;;;;;;;;;5036894;28;20454;-55
2021/05/29 01:46:35;;;;;;;7.30;4.77;;;;;;;;;;5036723;28;20683;-55
2021/05/29 01:49:04;;;;;;;10.37;6.17;;;;;;;;;;5037115;28;20477;-57
2021/05/29 01:51:31;;;;;;;6.53;4.40;;;;;;;;;;5036245;28;20492;-54
2021/05/29 01:53:58;;;;;;;6.90;4.90;;;;;;;;;;5036935;28;20446;-54
2021/05/29 01:56:32;;;;;;;9.77;5.33;;;;;;;;;;5036928;28;20458;-56
2021/05/29 01:59:00;;;;;;;9.17;5.30;;;;;;;;;;5036701;28;20458;-56
2021/05/29 02:01:26;;;;;;;15.60;5.63;;;;;;;;;;5035654;28;20483;-54
2021/05/29 02:03:54;;;;;;;6.77;5.07;;;;;;;;;;5036066;28;20663;-56
2021/05/29 02:06:21;;;;;;;7.17;5.40;;;;;;;;;;5036127;28;20451;-58
2021/05/29 02:08:48;;;;;;;6.93;4.87;;;;;;;;;;5036228;28;20470;-55
2021/05/29 02:11:15;;;;;;;8.97;5.80;;;;;;;;;;5036133;28;20435;-56
2021/05/29 02:13:42;;;;;;;8.17;5.40;;;;;;;;;;5036124;28;20483;-55
2021/05/29 02:16:16;;;;;;;8.60;5.90;;;;;;;;;;5036589;28;20458;-55
2021/05/29 02:18:43;;;;;;;14.70;4.90;;;;;;;;;;5036469;28;20518;-57
2021/05/29 02:21:11;;;;;;;8.47;4.77;;;;;;;;;;5036114;28;20487;-59
2021/05/29 02:23:38;;;;;;;9.70;5.70;;;;;;;;;;5035224;28;20470;-54
2021/05/29 02:26:06;;;;;;;9.13;5.33;;;;;;;;;;5035610;28;20423;-56
2021/05/29 02:28:35;;;;;;;7.63;5.03;;;;;;;;;;5035959;28;20503;-53
2021/05/29 02:31:02;;;;;;;9.37;5.00;;;;;;;;;;5035706;28;20463;-51
2021/05/29 02:33:30;;;;;;;7.10;4.80;;;;;;;;;;5035695;28;20462;-55
2021/05/29 02:35:57;;;;;;;8.23;5.73;;;;;;;;;;5036023;28;20463;-53
2021/05/29 02:38:25;;;;;;;8.90;5.13;;;;;;;;;;5036070;28;20467;-53
2021/05/29 02:40:52;;;;;;;6.07;4.50;;;;;;;;;;5036297;28;20463;-54
2021/05/29 02:43:27;;;;;;;6.10;3.93;;;;;;;;;;5039725;28;20477;-55
2021/05/29 02:45:54;;;;;;;10.90;5.20;;;;;;;;;;5039842;28;20458;-58
2021/05/29 02:48:21;;;;;;;8.67;4.87;;;;;;;;;;5040490;28;20442;-59
2021/05/29 02:50:49;;;;;;;6.93;4.50;;;;;;;;;;5040210;28;20442;-58
2021/05/29 02:53:16;;;;;;;6.50;4.80;;;;;;;;;;5039781;28;20462;-56
2021/05/29 02:55:53;;;;;;;9.33;4.77;;;;;;;;;;5039769;28;20427;-55
2021/05/29 02:58:20;;;;;;;7.20;4.80;;;;;;;;;;5039549;28;20468;-51
2021/05/29 03:00:48;;;;;;;7.50;4.70;;;;;;;;;;5039691;28;20447;-53
2021/05/29 03:03:15;;;;;;;8.10;4.97;;;;;;;;;;5047701;28;20501;-56
2021/05/29 03:05:43;;;;;;;7.53;4.13;;;;;;;;;;5059137;28;20461;-53
2021/05/29 03:08:11;;;;;;;8.30;4.07;;;;;;;;;;5058976;28;20454;-55
2021/05/29 03:10:40;;;;;;;7.07;5.10;;;;;;;;;;5058800;28;20422;-51
2021/05/29 03:13:17;;;;;;;6.60;5.43;;;;;;;;;;5059740;28;20464;-57
2021/05/29 03:15:57;;;;;;;6.47;4.60;;;;;;;;;;5059222;28;20422;-54
2021/05/29 03:18:23;;;;;;;7.77;4.63;;;;;;;;;;5058614;28;20511;-55
2021/05/29 03:20:50;;;;;;;6.77;4.17;;;;;;;;;;5058738;28;20464;-57
2021/05/29 03:23:18;;;;;;;11.30;4.30;;;;;;;;;;5053606;28;20499;-55
2021/05/29 03:25:46;;;;;;;8.80;4.57;;;;;;;;;;5019945;28;20442;-53
2021/05/29 03:28:22;;;;;;;8.43;4.00;;;;;;;;;;5022641;28;20535;-57
2021/05/29 03:30:49;;;;;;;8.43;4.13;;;;;;;;;;5058454;28;20487;-56
2021/05/29 03:33:16;;;;;;;5.90;3.93;;;;;;;;;;5058342;28;20453;-55
2021/05/29 03:35:44;;;;;;;7.33;4.37;;;;;;;;;;5058986;28;20466;-52
2021/05/29 03:38:11;;;;;;;7.70;4.50;;;;;;;;;;5058552;28;20453;-55
2021/05/29 03:40:38;;;;;;;7.60;4.20;;;;;;;;;;5058904;28;20442;-59
2021/05/29 03:43:12;;;;;;;10.53;4.10;;;;;;;;;;5058893;28;20470;-50
2021/05/29 03:45:39;;;;;;;6.60;3.60;;;;;;;;;;5058919;28;20461;-57
2021/05/29 03:48:06;;;;;;;8.20;4.67;;;;;;;;;;5045872;28;20489;-56
2021/05/29 03:50:40;;;;;;;6.17;3.80;;;;;;;;;;5037573;28;20473;-58
2021/05/29 03:53:08;;;;;;;5.70;4.10;;;;;;;;;;5037852;28;20521;-56
2021/05/29 03:55:35;;;;;;;8.80;4.60;;;;;;;;;;5038117;28;20474;-54
2021/05/29 03:58:04;;;;;;;5.97;3.57;;;;;;;;;;5038430;28;20434;-56
2021/05/29 04:00:32;;;;;;;9.10;4.70;;;;;;;;;;5037990;28;20462;-57
2021/05/29 04:02:59;;;;;;;7.70;4.03;;;;;;;;;;5038114;28;20489;-58
2021/05/29 04:05:28;;;;;;;8.27;4.10;;;;;;;;;;5038527;28;20431;-56
2021/05/29 04:07:55;;;;;;;7.50;4.87;;;;;;;;;;5038123;28;20486;-59
2021/05/29 04:10:23;;;;;;;6.10;4.20;;;;;;;;;;5037443;28;20446;-58
2021/05/29 04:12:53;;;;;;;12.23;4.30;;;;;;;;;;5037957;28;20451;-53
2021/05/29 04:15:21;;;;;;;5.90;4.30;;;;;;;;;;5037468;28;20513;-56
2021/05/29 04:17:48;;;;;;;7.23;4.87;;;;;;;;;;5037902;28;20443;-55
2021/05/29 04:20:18;;;;;;;8.07;4.13;;;;;;;;;;5037257;28;20450;-54
2021/05/29 04:22:47;;;;;;;4.93;3.83;;;;;;;;;;5037250;28;20518;-55
2021/05/29 04:25:15;;;;;;;6.60;4.20;;;;;;;;;;5037659;28;20514;-50
2021/05/29 04:27:43;;;;;;;8.20;3.90;;;;;;;;;;5037910;28;20451;-54
2021/05/29 04:30:11;;;;;;;5.80;4.03;;;;;;;;;;5036835;28;20473;-56
2021/05/29 04:32:53;;;;;;;12.50;5.90;;;;;;;;;;5037691;28;20442;-55
2021/05/29 04:35:20;;;;;;;6.10;3.43;;;;;;;;;;5036332;28;20447;-55
2021/05/29 04:37:48;;;;;;;6.27;4.60;;;;;;;;;;5037132;28;20459;-58
2021/05/29 04:40:16;;;;;;;6.07;3.90;;;;;;;;;;5036750;28;20471;-58
2021/05/29 04:42:43;;;;;;;5.90;3.80;;;;;;;;;;5037394;28;20486;-59
2021/05/29 04:45:21;;;;;;;7.43;4.20;;;;;;;;;;5037551;28;20489;-55
2021/05/29 04:47:48;;;;;;;7.73;3.90;;;;;;;;;;5037581;28;20439;-51
2021/05/29 04:50:19;;;;;;;9.50;4.40;;;;;;;;;;5038388;28;20459;-58
2021/05/29 04:52:49;;;;;;;7.43;3.53;;;;;;;;;;5037815;28;20514;-54
2021/05/29 04:55:16;;;;;;;7.67;3.80;;;;;;;;;;5036591;28;20518;-54
2021/05/29 04:57:47;;;;;;;5.70;3.53;;;;;;;;;;5037121;28;20451;-53
2021/05/29 05:00:16;;;;;;;5.40;3.17;;;;;;;;;;5036958;28;20443;-59
2021/05/29 05:02:43;;;;;;;6.13;3.70;;;;;;;;;;5030076;28;20488;-56
2021/05/29 05:05:10;;;;;;;6.43;3.70;;;;;;;;;;5036258;28;20465;-53
2021/05/29 05:07:38;;;;;;;5.20;3.97;;;;;;;;;;5037171;28;20451;-55
2021/05/29 05:10:06;;;;;;;7.10;3.90;;;;;;;;;;5036846;28;20461;-58
2021/05/29 05:12:32;;;;;;;5.87;3.80;;;;;;;;;;5041695;28;20472;-55
2021/05/29 05:14:59;;;;;;;5.30;3.87;;;;;;;;;;5056442;28;20456;-55
2021/05/29 05:17:28;;;;;;;5.40;3.00;;;;;;;;;;5056124;28;20426;-54
2021/05/29 05:19:56;;;;;;;5.20;3.30;;;;;;;;;;5041069;28;20526;-54
2021/05/29 05:22:23;;;;;;;8.80;3.53;;;;;;;;;;5036696;28;20474;-53
2021/05/29 05:25:07;;;;;;;5.27;2.90;;;;;;;;;;5037016;28;20594;-52
2021/05/29 05:27:36;;;;;;;5.73;3.33;;;;;;;;;;5034887;28;20490;-60
2021/05/29 05:30:06;;;;;;;5.43;3.93;;;;;;;;;;5036279;28;20492;-56
2021/05/29 05:32:35;;;;;;;8.80;3.77;;;;;;;;;;5036300;28;20455;-59
2021/05/29 05:35:02;;;;;;;6.27;3.37;;;;;;;;;;5028270;28;20495;-54
2021/05/29 05:37:34;;;;;;;5.27;3.43;;;;;;;;;;5036212;28;20607;-57
2021/05/29 05:40:02;;;;;;;6.57;4.20;;;;;;;;;;5035819;28;20469;-54
2021/05/29 05:42:29;;;;;;;8.97;3.23;;;;;;;;;;5036298;28;20482;-51
2021/05/29 05:44:56;;;;;;;7.90;3.87;;;;;;;;;;5036082;28;20451;-54
2021/05/29 05:47:23;;;;;;;5.10;3.60;;;;;;;;;;5036285;28;20443;-57
2021/05/29 05:49:54;;;;;;;4.77;3.27;;;;;;;;;;5036392;28;20522;-55
2021/05/29 05:52:21;;;;;;;6.80;3.47;;;;;;;;;;5036046;28;20423;-57
2021/05/29 05:54:47;;;;;;;6.33;4.00;;;;;;;;;;5036298;28;20450;-54
2021/05/29 05:57:20;;;;;;;4.40;2.90;;;;;;;;;;5036695;28;20442;-54
2021/05/29 05:59:47;;;;;;;6.43;2.90;;;;;;;;;;5034484;28;20474;-53
2021/05/29 06:02:17;;;;;;;5.37;2.97;;;;;;;;;;5036020;28;20479;-53
2021/05/29 06:05:06;;;;;;;9.00;4.17;;;;;;;;;;5019300;28;20463;-49
2021/05/29 06:07:33;;;;;;;4.23;2.70;;;;;;;;;;5047790;28;20501;-57
2021/05/29 06:10:01;;;;;;;8.67;4.10;;;;;;;;;;5055171;28;20481;-57
2021/05/29 06:12:32;;;;;;;4.07;2.77;;;;;;;;;;5056239;28;20466;-50
2021/05/29 06:20:45;;;;;;;4.87;3.20;;;;;;;;;;5035707;28;20450;-52
2021/05/29 06:23:16;;;;;;;5.57;3.23;;;;;;;;;;5055781;28;20474;-55
2021/05/29 06:25:43;;;;;;;6.00;3.90;;;;;;;;;;5055840;28;20449;-56
2021/05/29 06:28:12;;;;;;;6.00;3.50;;;;;;;;;;5055924;28;20441;-52
2021/05/29 06:30:41;;;;;;;4.43;3.40;;;;;;;;;;5055469;28;20461;-51
2021/05/29 06:33:09;;;;;;;5.50;3.03;;;;;;;;;;5055796;28;20461;-52
2021/05/29 06:35:36;;;;;;;5.90;3.67;;;;;;;;;;5055105;28;20438;-52
2021/05/29 06:38:05;;;;;;;6.33;3.47;;;;;;;;;;5055656;28;20465;-56
2021/05/29 06:40:32;;;;;;;5.77;3.27;;;;;;;;;;5055388;28;20687;-56
2021/05/29 06:42:59;;;;;;;4.30;2.80;;;;;;;;;;5054909;28;20501;-47
2021/05/29 06:45:43;;;;;;;4.63;2.80;;;;;;;;;;5055101;28;20485;-55
2021/05/29 06:48:13;;;;;;;8.07;4.13;;;;;;;;;;5055340;28;20518;-54
2021/05/29 06:50:47;;;;;;;8.80;3.80;;;;;;;;;;5055342;28;20517;-54
2021/05/29 06:53:23;;;;;;;3.57;2.73;;;;;;;;;;5054734;28;20480;-52
2021/05/29 06:58:50;;;;;;;4.87;3.20;;;;;;;;;;5054557;28;20433;-52
2021/05/29 07:01:19;;;;;;;4.30;3.00;;;;;;;;;;5054578;28;20488;-55
2021/05/29 07:03:46;;;;;;;5.00;3.10;;;;;;;;;;5054637;28;20452;-55
2021/05/29 07:06:13;;;;;;;5.60;2.70;;;;;;;;;;5054457;28;20429;-54
2021/05/29 07:08:40;;;;;;;6.43;3.40;;;;;;;;;;5055248;28;20449;-54
2021/05/29 07:11:09;;;;;;;5.60;3.17;;;;;;;;;;5054665;28;20496;-59
2021/05/29 07:13:36;;;;;;;5.60;3.30;;;;;;;;;;5054541;28;20449;-57
2021/05/29 07:16:04;;;;;;;5.43;3.33;;;;;;;;;;5054496;28;20464;-57
2021/05/29 07:18:44;;;;;;;7.53;2.80;;;;;;;;;;5054695;28;20488;-51
2021/05/29 07:21:11;;;;;;;7.90;3.60;;;;;;;;;;5053890;28;20457;-54
2021/05/29 07:23:38;;;;;;;6.90;3.97;;;;;;;;;;5054066;28;20450;-58
2021/05/29 07:26:22;;;;;;;5.97;4.00;;;;;;;;;;5054390;28;20472;-56
2021/05/29 07:28:51;;;;;;;10.10;3.97;;;;;;;;;;5057120;28;20465;-54
2021/05/29 07:31:18;;;;;;;5.90;3.70;;;;;;;;;;5057558;28;20469;-56
2021/05/29 07:34:08;;;;;;;7.53;4.43;;;;;;;;;;5057426;28;20476;-58
2021/05/29 07:36:36;;;;;;;5.47;3.40;;;;;;;;;;5054869;28;20484;-56
2021/05/29 07:39:04;;;;;;;4.40;3.20;;;;;;;;;;5049880;28;20492;-52
2021/05/29 07:41:34;;;;;;;9.67;3.60;;;;;;;;;;5058054;28;20485;-56
2021/05/29 07:44:03;;;;;;;9.33;3.00;;;;;;;;;;5058212;28;20452;-61
2021/05/29 07:46:36;;;;;;;5.53;2.97;;;;;;;;;;5057989;28;20462;-54
2021/05/29 07:49:12;;;;;;;5.53;3.43;;;;;;;;;;5057969;28;20446;-58
2021/05/29 07:51:47;;;;;;;8.67;3.47;;;;;;;;;;5058247;28;20481;-48
2021/05/29 07:54:19;;;;;;;9.43;3.40;;;;;;;;;;5058498;28;20450;-54
2021/05/29 07:56:46;;;;;;;8.73;4.47;;;;;;;;;;5057971;28;20492;-59
2021/05/29 07:59:16;;;;;;;6.13;3.20;;;;;;;;;;5057235;28;20461;-52
2021/05/29 08:01:44;;;;;;;3.90;2.83;;;;;;;;;;5057896;28;20469;-54
2021/05/29 08:04:18;;;;;;;8.37;3.90;;;;;;;;;;5057677;28;20466;-58
2021/05/29 08:06:45;;;;;;;6.43;3.60;;;;;;;;;;5057474;28;20441;-56
2021/05/29 08:09:12;;;;;;;5.90;4.23;;;;;;;;;;5057495;28;20508;-56
2021/05/29 08:11:41;;;;;;;6.63;4.00;;;;;;;;;;5057047;28;20534;-58
2021/05/29 08:14:11;;;;;;;8.27;5.17;;;;;;;;;;5056186;28;20516;-53
2021/05/29 08:16:40;;;;;;;6.03;3.33;;;;;;;;;;5056293;28;20466;-52
2021/05/29 08:19:19;;;;;;;7.10;4.30;;;;;;;;;;5056384;28;20457;-52
2021/05/29 08:21:49;;;;;;;9.40;4.13;;;;;;;;;;5056624;28;20477;-53
2021/05/29 08:24:16;;;;;;;6.80;3.80;;;;;;;;;;5056356;28;20462;-51
2021/05/29 08:26:48;;;;;;;8.80;3.67;;;;;;;;;;5056628;28;20430;-47
2021/05/29 08:29:18;;;;;;;5.33;3.67;;;;;;;;;;5056841;28;20446;-59
2021/05/29 08:31:45;;;;;;;7.90;5.30;;;;;;;;;;5056598;28;20581;-61
2021/05/29 08:34:12;;;;;;;8.13;4.40;;;;;;;;;;5056296;28;20449;-61
2021/05/29 08:36:40;;;;;;;7.30;4.70;;;;;;;;;;5055765;28;20556;-60
2021/05/29 08:39:11;;;;;;;5.10;3.40;;;;;;;;;;5056271;28;20415;-54
2021/05/29 08:41:39;;;;;;;5.57;3.90;;;;;;;;;;5056072;28;20482;-61
2021/05/29 08:44:08;;;;;;;5.80;3.20;;;;;;;;;;5056124;28;20540;-54
2021/05/29 08:46:38;;;;;;;9.63;4.50;;;;;;;;;;5055881;28;20493;-54
2021/05/29 08:49:04;;;;;;;6.93;3.53;;;;;;;;;;5055908;28;20520;-55
2021/05/29 08:51:35;;;;;;;5.40;3.73;;;;;;;;;;5055519;28;20458;-57
2021/05/29 08:54:03;;;;;;;11.57;3.53;;;;;;;;;;5051263;28;20461;-58
2021/05/29 08:56:30;;;;;;;4.10;2.57;;;;;;;;;;5055740;28;20481;-53
2021/05/29 08:59:15;;;;;;;6.40;3.03;;;;;;;;;;5055184;28;20462;-56
2021/05/29 09:01:49;;;;;;;4.53;3.13;;;;;;;;;;5055454;28;20493;-53
2021/05/29 09:04:18;;;;;;;12.23;3.37;;;;;;;;;;5055347;28;20484;-57
2021/05/29 09:07:04;;;;;;;5.97;3.47;;;;;;;;;;5056555;28;20446;-52
2021/05/29 09:09:33;;;;;;;4.73;2.90;;;;;;;;;;5053791;28;20526;-54
2021/05/29 09:12:03;;;;;;;4.97;3.10;;;;;;;;;;5056296;28;20488;-50
2021/05/29 09:14:58;;;;;;;5.13;3.20;;;;;;;;;;5055354;28;20469;-56
2021/05/29 09:17:25;;;;;;;6.30;2.53;;;;;;;;;;5054278;28;20500;-56
2021/05/29 09:19:56;;;;;;;4.57;2.53;;;;;;;;;;5064238;28;20483;-52
2021/05/29 09:22:24;;;;;;;6.03;2.40;;;;;;;;;;5075388;28;20543;-54
2021/05/29 09:25:12;;;;;;;3.97;2.80;;;;;;;;;;5075771;28;20417;-57
2021/05/29 09:28:02;;;;;;;4.50;2.70;;;;;;;;;;5060175;28;20446;-50
2021/05/29 09:30:37;;;;;;;5.93;2.77;;;;;;;;;;5054613;28;20449;-52
2021/05/29 09:33:11;;;;;;;4.07;2.20;;;;;;;;;;5054625;28;20441;-49
2021/05/29 09:35:40;;;;;;;4.53;2.30;;;;;;;;;;5054392;28;20507;-55
2021/05/29 09:38:07;;;;;;;4.87;2.87;;;;;;;;;;5054312;28;20445;-51
2021/05/29 09:40:37;;;;;;;4.40;2.47;;;;;;;;;;5055024;28;20453;-54
2021/05/29 09:43:12;;;;;;;4.63;2.67;;;;;;;;;;5052146;28;20509;-53
2021/05/29 09:45:41;;;;;;;5.33;3.07;;;;;;;;;;5053836;28;20634;-57
2021/05/29 09:48:16;;;;;;;3.67;2.40;;;;;;;;;;5054209;28;20430;-53
2021/05/29 09:51:00;;;;;;;5.17;2.73;;;;;;;;;;5049698;28;20442;-55
2021/05/29 09:53:29;;;;;;;9.40;3.00;;;;;;;;;;5054651;28;20445;-55
2021/05/29 09:55:57;;;;;;;5.27;2.37;;;;;;;;;;5055161;28;20501;-57
2021/05/29 09:59:00;;;;;;;7.00;2.43;;;;;;;;;;5055217;28;20461;-54
2021/05/29 10:01:52;;;;;;;4.70;2.40;;;;;;;;;;5054618;28;20545;-55
2021/05/29 10:04:38;;;;;;;5.20;2.00;;;;;;;;;;5054613;28;20470;-57
2021/05/29 10:07:05;;;;;;;3.80;1.97;;;;;;;;;;5050908;28;20579;-52
2021/05/29 10:09:33;;;;;;;10.40;2.60;;;;;;;;;;5052417;28;20453;-53
2021/05/29 10:12:03;;;;;;;5.30;2.30;;;;;;;;;;5052952;28;20458;-50
2021/05/29 10:14:31;;;;;;;4.63;2.40;;;;;;;;;;5052406;28;20468;-50
2021/05/29 10:16:59;;;;;;;6.43;1.93;;;;;;;;;;5052180;28;20471;-56
2021/05/29 10:19:31;;;;;;;3.80;1.80;;;;;;;;;;5053726;28;20476;-53
2021/05/29 10:21:58;;;;;;;5.33;2.23;;;;;;;;;;5053575;28;20492;-54
2021/05/29 10:24:27;;;;;;;3.50;1.80;;;;;;;;;;5051975;28;20449;-54
2021/05/29 10:27:04;;;;;;;4.47;2.03;;;;;;;;;;5052983;28;20450;-57
2021/05/29 10:29:30;;;;;;;3.90;2.50;;;;;;;;;;5050278;28;20494;-55
2021/05/29 10:32:18;;;;;;;6.07;3.07;;;;;;;;;;5050927;28;20633;-54
2021/05/29 10:34:59;;;;;;;4.27;2.13;;;;;;;;;;5052742;28;20604;-56
2021/05/29 10:37:33;;;;;;;3.93;2.10;;;;;;;;;;5054475;28;20456;-56
2021/05/29 10:40:30;;;;;;;4.60;2.70;;;;;;;;;;5053160;28;20454;-54
2021/05/29 10:43:14;;;;;;;3.70;1.83;;;;;;;;;;5052888;28;20604;-55
2021/05/29 10:45:56;;;;;;;10.30;2.20;;;;;;;;;;5052946;28;20476;-56
2021/05/29 10:48:24;;;;;;;4.87;2.27;;;;;;;;;;5053214;28;20495;-56
2021/05/29 10:51:04;;;;;;;4.00;2.17;;;;;;;;;;5052828;28;20477;-60
2021/05/29 10:53:38;;;;;;;8.30;2.63;;;;;;;;;;5052293;28;20449;-59
2021/05/29 10:56:26;;;;;;;4.30;2.40;;;;;;;;;;5053326;28;20441;-53
2021/05/29 10:58:59;;;;;;;3.83;2.20;;;;;;;;;;5041105;28;20488;-53
2021/05/29 11:01:42;;;;;;;3.50;2.53;;;;;;;;;;5069527;28;20449;-56
2021/05/29 11:04:23;;;;;;;7.13;2.90;;;;;;;;;;5060106;28;20461;-58
2021/05/29 11:06:52;;;;;;;5.13;3.07;;;;;;;;;;5056530;28;20449;-53
2021/05/29 11:09:42;;;;;;;8.97;3.53;;;;;;;;;;5056908;28;20484;-55
2021/05/29 11:12:10;;;;;;;4.80;3.30;;;;;;;;;;5057609;28;20454;-56
2021/05/29 11:14:48;;;;;;;7.23;3.03;;;;;;;;;;5041665;28;20492;-55
2021/05/29 11:17:19;;;;;;;5.00;2.93;;;;;;;;;;5057226;28;20749;-58
2021/05/29 11:20:05;;;;;;;4.80;3.03;;;;;;;;;;5057189;28;20456;-56
2021/05/29 11:22:50;;;;;;;10.27;3.10;;;;;;;;;;5054567;28;20477;-55
2021/05/29 11:25:19;;;;;;;9.60;3.43;;;;;;;;;;5056363;28;20454;-59
2021/05/29 11:27:51;;;;;;;6.97;3.83;;;;;;;;;;5056852;28;20442;-56
2021/05/29 11:30:20;;;;;;;3.87;2.70;;;;;;;;;;5057173;28;20536;-54
2021/05/29 11:32:53;;;;;;;4.60;3.00;;;;;;;;;;5056953;28;20457;-55
2021/05/29 11:35:32;;;;;;;3.87;2.40;;;;;;;;;;5056085;28;20521;-55
2021/05/29 11:38:01;;;;;;;6.87;3.20;;;;;;;;;;5056168;28;20483;-54
2021/05/29 11:40:46;;;;;;;4.10;2.77;;;;;;;;;;5054567;28;20457;-56
2021/05/29 11:43:14;;;;;;;4.60;2.30;;;;;;;;;;5062421;28;20523;-55
2021/05/29 11:45:43;;;;;;;4.73;2.40;;;;;;;;;;5052010;28;20438;-53
2021/05/29 11:48:11;;;;;;;4.60;3.20;;;;;;;;;;5065451;28;20454;-56
2021/05/29 11:50:42;;;;;;;5.40;3.60;;;;;;;;;;5055831;28;20532;-56
2021/05/29 11:53:29;;;;;;;8.17;4.03;;;;;;;;;;5056459;28;20462;-57
2021/05/29 11:55:57;;;;;;;5.10;3.00;;;;;;;;;;5065505;28;20465;-57
2021/05/29 11:58:25;;;;;;;6.40;3.50;;;;;;;;;;5057051;28;20496;-53
2021/05/29 12:01:09;;;;;;;6.27;3.53;;;;;;;;;;5056732;28;20426;-53
2021/05/29 12:03:56;;;;;;;7.20;3.70;;;;;;;;;;5054345;28;20498;-57
2021/05/29 12:06:34;;;;;;;6.33;3.57;;;;;;;;;;5036695;28;20423;-54
2021/05/29 12:09:02;;;;;;;6.20;4.27;;;;;;;;;;5042784;28;20740;-54
2021/05/29 12:11:30;;;;;;;5.27;4.20;;;;;;;;;;5056250;28;20466;-55
2021/05/29 12:14:11;;;;;;;7.50;5.10;;;;;;;;;;5056076;28;20531;-51
2021/05/29 12:16:44;;;;;;;8.13;4.67;;;;;;;;;;5035330;28;20479;-46
2021/05/29 12:19:31;;;;;;;7.90;4.53;;;;;;;;;;5053772;28;20446;-52
2021/05/29 12:21:59;;;;;;;8.13;4.77;;;;;;;;;;5055574;28;20484;-59
2021/05/29 12:24:29;;;;;;;8.27;4.03;;;;;;;;;;5055559;28;20438;-51
2021/05/29 12:27:03;;;;;;;5.50;3.30;;;;;;;;;;5056072;28;20545;-59
2021/05/29 12:29:30;;;;;;;8.13;4.83;;;;;;;;;;5055056;28;20481;-54
2021/05/29 12:32:16;;;;;;;7.43;3.87;;;;;;;;;;5056291;28;20464;-58
2021/05/29 12:34:50;;;;;;;5.40;4.10;;;;;;;;;;5054227;28;20465;-57
2021/05/29 12:37:27;;;;;;;8.20;5.23;;;;;;;;;;5045508;28;20455;-56
2021/05/29 12:39:55;;;;;;;6.53;4.33;;;;;;;;;;5037372;28;20454;-50
2021/05/29 12:42:29;;;;;;;8.40;3.80;;;;;;;;;;5044841;28;20473;-56
2021/05/29 12:44:57;;;;;;;8.40;4.40;;;;;;;;;;5055305;28;20521;-57
2021/05/29 12:47:24;;;;;;;10.87;5.00;;;;;;;;;;5054859;28;20450;-57
2021/05/29 12:49:57;;;;;;;8.77;4.90;;;;;;;;;;5054193;28;20454;-53
2021/05/29 12:52:34;;;;;;;6.90;4.70;;;;;;;;;;5054827;28;20550;-57
2021/05/29 12:55:06;;;;;;;6.70;4.33;;;;;;;;;;5053276;28;20488;-56
2021/05/29 12:57:39;;;;;;;6.03;4.43;;;;;;;;;;5055424;28;20450;-54
2021/05/29 13:00:22;;;;;;;6.47;5.03;;;;;;;;;;5053714;28;20754;-59
2021/05/29 13:09:17;;;;;;;7.67;4.90;;;;;;;;;;5055266;28;20464;-54
2021/05/29 13:11:52;;;;;;;11.40;6.07;;;;;;;;;;5050188;28;20553;-57
2021/05/29 13:14:29;;;;;;;10.30;4.77;;;;;;;;;;5055168;28;20456;-54
2021/05/29 13:19:54;;;;;;;10.23;5.80;;;;;;;;;;5042640;28;20470;-59
2021/05/29 13:22:32;;;;;;;8.80;4.90;;;;;;;;;;5065678;28;20489;-48
2021/05/29 13:25:02;;;;;;;7.90;5.50;;;;;;;;;;5054281;28;20518;-57
2021/05/29 13:30:37;;;;;;;7.53;5.40;;;;;;;;;;5058406;28;20511;-57
2021/05/29 13:33:06;;;;;;;10.27;6.57;;;;;;;;;;5049792;28;20458;-58
2021/05/29 13:35:35;;;;;;;12.87;5.87;;;;;;;;;;5058682;28;20458;-57
2021/05/29 13:38:13;;;;;;;8.87;5.30;;;;;;;;;;5058009;28;20492;-57
2021/05/29 13:40:47;;;;;;;8.47;5.90;;;;;;;;;;5036365;28;20447;-56
2021/05/29 13:43:22;;;;;;;6.30;5.47;;;;;;;;;;5040664;28;20514;-53
2021/05/29 13:45:51;;;;;;;8.83;6.27;;;;;;;;;;5055155;28;20465;-53
2021/05/29 13:48:17;;;;;;;9.40;6.60;;;;;;;;;;5054106;28;20450;-53
2021/05/29 13:50:50;;;;;;;9.20;5.00;;;;;;;;;;5054890;28;20582;-57
2021/05/29 13:53:34;;;;;;;10.37;5.80;;;;;;;;;;5055316;28;20453;-59
2021/05/29 13:56:10;;;;;;;5.73;4.47;;;;;;;;;;5053449;28;20580;-57
2021/05/29 13:58:39;;;;;;;11.73;5.73;;;;;;;;;;5051001;28;20451;-59
2021/05/29 14:01:09;;;;;;;8.93;6.47;;;;;;;;;;5047367;28;20450;-54
2021/05/29 14:03:36;;;;;;;7.23;5.10;;;;;;;;;;5054125;28;20472;-56
2021/05/29 14:09:07;;;;;;;4.70;3.47;;;;;;;;;;5050719;28;20401;-54
2021/05/29 14:11:37;;;;;;;5.00;3.90;;;;;;;;;;5052961;28;20505;-53
2021/05/29 14:14:04;;;;;;;6.43;4.20;;;;;;;;;;5053036;28;20458;-50
2021/05/29 14:16:32;;;;;;;5.37;4.13;;;;;;;;;;5053941;28;20453;-53
2021/05/29 14:19:07;;;;;;;11.17;5.90;;;;;;;;;;5054919;28;20446;-58
2021/05/29 14:21:40;;;;;;;8.53;5.00;;;;;;;;;;5053816;28;20503;-59
2021/05/29 14:24:12;;;;;;;6.67;5.23;;;;;;;;;;5053548;28;20482;-59
2021/05/29 14:26:41;;;;;;;5.10;2.63;;;;;;;;;;5054273;28;20564;-51
2021/05/29 14:29:09;;;;;;;9.00;5.63;;;;;;;;;;5054044;28;20466;-53
2021/05/29 14:31:39;;;;;;;11.40;4.87;;;;;;;;;;5054334;28;20450;-52
2021/05/29 14:34:07;;;;;;;10.00;4.50;;;;;;;;;;5052969;28;20461;-59
2021/05/29 14:36:41;;;;;;;8.10;5.03;;;;;;;;;;5054786;28;20446;-58
2021/05/29 14:39:08;;;;;;;6.10;4.07;;;;;;;;;;5058037;28;20499;-60
2021/05/29 14:41:38;;;;;;;6.20;4.20;;;;;;;;;;5057498;28;20465;-59
2021/05/29 14:44:28;;;;;;;4.73;3.67;;;;;;;;;;5058879;28;20521;-58
2021/05/29 14:47:00;;;;;;;5.57;4.30;;;;;;;;;;5057168;28;20560;-57
2021/05/29 14:49:28;;;;;;;7.63;4.20;;;;;;;;;;5057874;28;20465;-58
2021/05/29 14:51:55;;;;;;;8.53;3.90;;;;;;;;;;5058376;28;20470;-54
2021/05/29 14:54:25;;;;;;;6.03;3.93;;;;;;;;;;5058322;28;20441;-51
2021/05/29 14:57:01;;;;;;;5.00;3.23;;;;;;;;;;5057874;28;20441;-58
2021/05/29 14:59:33;;;;;;;7.73;4.60;;;;;;;;;;5039199;28;20454;-53
2021/05/29 15:02:02;;;;;;;5.87;4.67;;;;;;;;;;5051150;28;20504;-56
2021/05/29 15:04:56;;;;;;;5.60;3.77;;;;;;;;;;5058221;28;20453;-52
2021/05/29 15:07:25;;;;;;;6.50;3.97;;;;;;;;;;5059651;28;20446;-50
2021/05/29 15:09:52;;;;;;;7.23;3.70;;;;;;;;;;5057762;28;20505;-54
2021/05/29 15:12:19;;;;;;;6.47;4.10;;;;;;;;;;5057745;28;20477;-47
2021/05/29 15:14:46;;;;;;;10.67;4.47;;;;;;;;;;5057929;28;20505;-54
2021/05/29 15:17:32;;;;;;;8.47;3.70;;;;;;;;;;5057871;28;20450;-52
2021/05/29 15:20:00;;;;;;;8.10;4.37;;;;;;;;;;5054320;28;20475;-56
2021/05/29 15:22:45;;;;;;;8.07;3.77;;;;;;;;;;5057655;28;20488;-54
2021/05/29 15:25:16;;;;;;;6.47;4.83;;;;;;;;;;5057018;28;20454;-55
2021/05/29 15:27:43;;;;;;;7.30;4.50;;;;;;;;;;5057435;28;20460;-58
2021/05/29 15:30:13;;;;;;;8.70;4.77;;;;;;;;;;5057718;28;20441;-53